createdAt,value
2023-05-03T00:02:24.691Z,102864.66
2023-05-03T00:04:54.770Z,102854.16
2023-05-03T00:07:23.251Z,102855.09
2023-05-03T00:09:50.361Z,102860.53
2023-05-03T00:12:17.422Z,102851.88
2023-05-03T00:14:46.299Z,102859.06
2023-05-03T00:17:13.609Z,102855.25
2023-05-03T00:19:40.791Z,102859.03
2023-05-03T00:22:07.968Z,102838.63
2023-05-03T00:24:35.319Z,102859.13
2023-05-03T00:27:03.756Z,102854.53
2023-05-03T00:29:30.490Z,102868.44
2023-05-03T00:31:57.489Z,102862.03
2023-05-03T00:34:24.573Z,102862.66
2023-05-03T00:36:51.736Z,102850.59
2023-05-03T00:39:18.634Z,102855.75
2023-05-03T00:41:45.507Z,102855.00
2023-05-03T00:44:12.417Z,102857.06
2023-05-03T00:46:39.403Z,102851.81
2023-05-03T00:49:06.701Z,102860.44
2023-05-03T00:51:34.117Z,102838.50
2023-05-03T00:54:01.212Z,102860.00
2023-05-03T00:56:31.102Z,102861.13
2023-05-03T00:59:00.896Z,102858.81
2023-05-03T01:01:29.399Z,102839.53
2023-05-03T01:03:57.293Z,102858.75
2023-05-03T01:06:38.455Z,102863.78
2023-05-03T01:09:11.575Z,102857.50
2023-05-03T01:11:57.098Z,102856.50
2023-05-03T01:14:35.869Z,102864.34
2023-05-03T01:17:09.232Z,102867.75
2023-05-03T01:19:51.820Z,102863.72
2023-05-03T01:22:41.877Z,102867.09
2023-05-03T01:25:11.314Z,102852.28
2023-05-03T01:27:39.300Z,102868.91
2023-05-03T01:30:08.314Z,102870.78
2023-05-03T01:32:53.661Z,102874.16
2023-05-03T01:35:31.429Z,102875.47
2023-05-03T01:37:59.342Z,102871.25
2023-05-03T01:40:28.400Z,102879.88
2023-05-03T01:42:56.976Z,102873.31
2023-05-03T01:45:23.985Z,102877.75
2023-05-03T01:47:51.037Z,102882.50
2023-05-03T01:50:18.141Z,102886.66
2023-05-03T01:52:45.535Z,102888.75
2023-05-03T01:55:12.461Z,102883.56
2023-05-03T01:57:42.721Z,102869.97
2023-05-03T02:00:12.520Z,102859.38
2023-05-03T02:02:39.631Z,102873.16
2023-05-03T02:05:06.930Z,102879.28
2023-05-03T02:07:33.908Z,102878.41
2023-05-03T02:10:01.116Z,102880.69
2023-05-03T02:12:28.233Z,102884.19
2023-05-03T02:14:55.379Z,102876.91
2023-05-03T02:17:26.757Z,102879.63
2023-05-03T02:19:53.906Z,102875.69
2023-05-03T02:22:20.717Z,102888.31
2023-05-03T02:24:47.734Z,102881.28
2023-05-03T02:27:15.294Z,102892.94
2023-05-03T02:29:42.183Z,102889.78
2023-05-03T02:32:09.115Z,102898.09
2023-05-03T02:34:36.517Z,102890.00
2023-05-03T02:37:03.495Z,102896.63
2023-05-03T02:39:30.456Z,102890.94
2023-05-03T02:41:57.454Z,102894.38
2023-05-03T02:44:24.602Z,102888.94
2023-05-03T02:46:51.674Z,102883.75
2023-05-03T02:49:18.621Z,102869.59
2023-05-03T02:51:46.118Z,102897.38
2023-05-03T02:54:13.033Z,102895.97
2023-05-03T02:56:39.848Z,102872.97
2023-05-03T02:59:06.908Z,102894.56
2023-05-03T03:01:34.608Z,102898.91
2023-05-03T03:04:01.721Z,102894.97
2023-05-03T03:06:28.940Z,102893.06
2023-05-03T03:08:55.754Z,102885.34
2023-05-03T03:11:24.178Z,102893.13
2023-05-03T03:13:51.001Z,102897.22
2023-05-03T03:16:18.126Z,102889.09
2023-05-03T03:18:46.158Z,102889.34
2023-05-03T03:21:12.907Z,102889.34
2023-05-03T03:23:39.772Z,102886.41
2023-05-03T03:26:06.599Z,102892.78
2023-05-03T03:28:33.638Z,102886.91
2023-05-03T03:31:00.606Z,102883.66
2023-05-03T03:33:27.761Z,102891.00
2023-05-03T03:35:57.090Z,102885.28
2023-05-03T03:38:24.692Z,102888.09
2023-05-03T03:40:53.059Z,102895.53
2023-05-03T03:43:20.001Z,102889.94
2023-05-03T03:45:49.851Z,102877.31
2023-05-03T03:48:19.963Z,102883.31
2023-05-03T03:50:49.712Z,102882.50
2023-05-03T03:53:16.698Z,102881.88
2023-05-03T03:55:43.611Z,102881.50
2023-05-03T03:58:10.492Z,102881.63
2023-05-03T04:00:37.697Z,102880.31
2023-05-03T04:03:07.820Z,102885.25
2023-05-03T04:05:38.030Z,102875.84
2023-05-03T04:08:07.885Z,102880.19
2023-05-03T04:10:34.822Z,102879.84
2023-05-03T04:13:01.982Z,102881.81
2023-05-03T04:15:29.012Z,102879.09
2023-05-03T04:17:56.125Z,102881.25
2023-05-03T04:20:23.807Z,102881.13
2023-05-03T04:22:50.786Z,102888.94
2023-05-03T04:25:18.513Z,102888.09
2023-05-03T04:27:46.295Z,102888.97
2023-05-03T04:30:15.289Z,102887.75
2023-05-03T04:32:43.011Z,102894.25
2023-05-03T04:35:12.812Z,102894.13
2023-05-03T04:37:42.158Z,102893.59
2023-05-03T04:40:12.815Z,102893.78
2023-05-03T04:42:39.767Z,102890.31
2023-05-03T04:45:08.089Z,102898.94
2023-05-03T04:47:35.028Z,102904.50
2023-05-03T04:50:02.546Z,102896.97
2023-05-03T04:52:30.056Z,102912.28
2023-05-03T04:54:57.204Z,102913.97
2023-05-03T04:57:24.042Z,102912.91
2023-05-03T04:59:51.345Z,102910.75
2023-05-03T05:02:18.214Z,102912.38
2023-05-03T05:04:45.146Z,102910.88
2023-05-03T05:07:13.503Z,102920.34
2023-05-03T05:09:40.561Z,102921.47
2023-05-03T05:12:07.922Z,102925.66
2023-05-03T05:14:37.806Z,102925.94
2023-05-03T05:17:04.845Z,102927.28
2023-05-03T05:19:31.836Z,102928.09
2023-05-03T05:21:58.739Z,102923.88
2023-05-03T05:24:26.094Z,102923.97
2023-05-03T05:26:53.324Z,102928.25
2023-05-03T05:29:20.236Z,102927.25
2023-05-03T05:31:47.384Z,102918.38
2023-05-03T05:34:14.486Z,102922.38
2023-05-03T05:36:41.378Z,102919.06
2023-05-03T05:39:08.444Z,102928.59
2023-05-03T05:41:36.830Z,102935.06
2023-05-03T05:44:03.855Z,102934.25
2023-05-03T05:46:30.897Z,102935.09
2023-05-03T05:49:00.387Z,102930.31
2023-05-03T05:51:28.174Z,102943.69
2023-05-03T05:53:55.288Z,102933.91
2023-05-03T05:56:22.348Z,102933.28
2023-05-03T05:58:49.485Z,102929.53
2023-05-03T06:01:16.532Z,102946.47
2023-05-03T06:03:43.568Z,102948.25
2023-05-03T06:06:10.359Z,102948.59
2023-05-03T06:08:37.490Z,102953.97
2023-05-03T06:11:04.434Z,102956.25
2023-05-03T06:13:33.444Z,102958.38
2023-05-03T06:16:00.381Z,102954.06
2023-05-03T06:18:27.183Z,102940.72
2023-05-03T06:20:54.188Z,102956.78
2023-05-03T06:23:21.169Z,102958.97
2023-05-03T06:25:48.513Z,102945.91
2023-05-03T06:28:15.351Z,102957.75
2023-05-03T06:30:42.368Z,102958.22
2023-05-03T06:33:12.998Z,102962.03
2023-05-03T06:35:40.152Z,102960.59
2023-05-03T06:38:07.713Z,102959.97
2023-05-03T06:40:35.978Z,102963.44
2023-05-03T06:43:05.093Z,102956.25
2023-05-03T06:45:32.152Z,102948.38
2023-05-03T06:47:59.464Z,102938.00
2023-05-03T06:50:26.440Z,102954.78
2023-05-03T06:52:56.007Z,102951.66
2023-05-03T06:55:23.092Z,102950.44
2023-05-03T06:57:49.976Z,102928.50
2023-05-03T07:00:17.152Z,102935.97
2023-05-03T07:02:44.635Z,102945.59
2023-05-03T07:05:14.665Z,102952.09
2023-05-03T07:07:41.482Z,102940.69
2023-05-03T07:10:08.619Z,102944.25
2023-05-03T07:12:35.725Z,102949.69
2023-05-03T07:15:02.459Z,102956.53
2023-05-03T07:17:29.448Z,102945.66
2023-05-03T07:19:57.363Z,102949.41
2023-05-03T07:22:28.144Z,102937.63
2023-05-03T07:24:56.067Z,102940.06
2023-05-03T07:27:23.087Z,102948.94
2023-05-03T07:29:50.397Z,102937.31
2023-05-03T07:32:17.506Z,102929.41
2023-05-03T07:34:44.368Z,102942.31
2023-05-03T07:37:14.014Z,102945.56
2023-05-03T07:39:41.752Z,102947.56
2023-05-03T07:42:08.822Z,102945.00
2023-05-03T07:44:35.972Z,102938.00
2023-05-03T07:47:03.307Z,102935.28
2023-05-03T07:49:31.266Z,102951.19
2023-05-03T07:51:59.135Z,102944.84
2023-05-03T07:54:26.076Z,102941.00
2023-05-03T07:56:55.021Z,102944.88
2023-05-03T07:59:22.618Z,102946.84
2023-05-03T08:01:49.680Z,102950.16
2023-05-03T08:04:16.563Z,102951.25
2023-05-03T08:06:43.847Z,102959.72
2023-05-03T08:09:11.911Z,102956.97
2023-05-03T08:11:38.852Z,102958.75
2023-05-03T08:14:06.497Z,102964.38
2023-05-03T08:16:33.586Z,102960.97
2023-05-03T08:19:00.642Z,102966.81
2023-05-03T08:21:31.781Z,102963.13
2023-05-03T08:23:58.654Z,102969.09
2023-05-03T08:26:28.779Z,102962.28
2023-05-03T08:28:55.686Z,102969.75
2023-05-03T08:31:22.692Z,102962.25
2023-05-03T08:33:50.013Z,102963.72
2023-05-03T08:36:17.279Z,102943.59
2023-05-03T08:38:44.284Z,102967.72
2023-05-03T08:41:32.047Z,102960.50
2023-05-03T08:44:01.782Z,102965.28
2023-05-03T08:46:29.329Z,102929.91
2023-05-03T08:48:57.101Z,102935.16
2023-05-03T08:51:25.638Z,102933.94
2023-05-03T08:53:52.874Z,102936.13
2023-05-03T08:56:44.413Z,102934.28
2023-05-03T08:59:12.006Z,102938.34
2023-05-03T09:01:42.322Z,102927.72
2023-05-03T09:04:11.175Z,102934.41
2023-05-03T09:06:39.031Z,102940.16
2023-05-03T09:09:08.846Z,102954.31
2023-05-03T09:11:38.058Z,102960.31
2023-05-03T09:14:15.998Z,102951.25
2023-05-03T09:16:46.708Z,102960.94
2023-05-03T09:19:15.295Z,102965.97
2023-05-03T09:21:44.511Z,102950.56
2023-05-03T09:24:23.843Z,102961.06
2023-05-03T09:26:52.187Z,102971.09
2023-05-03T09:29:37.407Z,102974.69
2023-05-03T09:32:06.426Z,102974.63
2023-05-03T09:34:37.745Z,102972.38
2023-05-03T09:37:07.680Z,102965.03
2023-05-03T09:39:37.015Z,102966.59
2023-05-03T09:42:17.871Z,102956.16
2023-05-03T09:44:54.204Z,102961.00
2023-05-03T09:47:24.810Z,102958.75
2023-05-03T09:49:52.058Z,102959.03
2023-05-03T09:52:20.072Z,102948.00
2023-05-03T09:54:47.453Z,102939.91
2023-05-03T09:57:15.593Z,102941.91
2023-05-03T09:59:45.493Z,102939.75
2023-05-03T10:02:12.608Z,102948.94
2023-05-03T10:04:52.097Z,102947.50
2023-05-03T10:07:23.472Z,102949.91
2023-05-03T10:09:51.373Z,102943.50
2023-05-03T10:12:19.901Z,102956.59
2023-05-03T10:14:48.857Z,102958.78
2023-05-03T10:17:47.161Z,102960.50
2023-05-03T10:20:39.080Z,102948.44
2023-05-03T10:23:06.700Z,102950.41
2023-05-03T10:25:35.976Z,102943.34
2023-05-03T10:28:04.518Z,102945.28
2023-05-03T10:30:32.756Z,102937.16
2023-05-03T10:33:20.619Z,102941.59
2023-05-03T10:35:54.709Z,102944.53
2023-05-03T10:38:26.297Z,102923.53
2023-05-03T10:40:55.486Z,102936.03
2023-05-03T10:43:34.489Z,102925.38
2023-05-03T10:46:06.948Z,102926.91
2023-05-03T10:48:34.907Z,102917.03
2023-05-03T10:51:37.465Z,102920.00
2023-05-03T10:54:04.766Z,102918.56
2023-05-03T10:56:31.691Z,102909.09
2023-05-03T10:58:59.396Z,102914.91
2023-05-03T11:01:27.633Z,102912.53
2023-05-03T11:04:13.793Z,102911.91
2023-05-03T11:06:46.356Z,102914.53
2023-05-03T11:09:15.074Z,102925.41
2023-05-03T11:11:42.894Z,102929.78
2023-05-03T11:14:11.780Z,102928.06
2023-05-03T11:16:47.744Z,102927.19
2023-05-03T11:19:15.255Z,102932.66
2023-05-03T11:21:43.439Z,102936.66
2023-05-03T11:24:10.641Z,102939.66
2023-05-03T11:26:40.230Z,102929.38
2023-05-03T11:29:10.878Z,102923.97
2023-05-03T11:31:37.834Z,102925.75
2023-05-03T11:34:06.803Z,102926.06
2023-05-03T11:36:34.358Z,102938.19
2023-05-03T11:39:01.473Z,102933.16
2023-05-03T11:41:28.649Z,102937.59
2023-05-03T11:44:07.745Z,102931.94
2023-05-03T11:46:42.998Z,102938.25
2023-05-03T11:49:10.492Z,102913.63
2023-05-03T11:51:37.814Z,102918.63
2023-05-03T11:54:21.132Z,102904.88
2023-05-03T11:57:01.217Z,102900.50
2023-05-03T11:59:36.187Z,102910.56
2023-05-03T12:02:05.433Z,102911.63
2023-05-03T12:04:33.140Z,102900.03
2023-05-03T12:07:00.937Z,102905.25
2023-05-03T12:09:32.329Z,102903.16
2023-05-03T12:12:02.210Z,102913.56
2023-05-03T12:14:50.699Z,102908.94
2023-05-03T12:17:44.318Z,102903.19
2023-05-03T12:22:52.906Z,102909.28
2023-05-03T12:25:25.920Z,102898.84
2023-05-03T12:28:15.017Z,102906.56
2023-05-03T12:30:45.362Z,102904.13
2023-05-03T12:33:15.141Z,102898.44
2023-05-03T12:35:47.812Z,102895.78
2023-05-03T12:38:17.335Z,102902.41
2023-05-03T12:40:47.828Z,102899.78
2023-05-03T12:43:15.369Z,102858.00
2023-05-03T12:45:46.588Z,102905.53
2023-05-03T12:48:17.324Z,102864.09
2023-05-03T12:50:45.528Z,102889.41
2023-05-03T12:53:16.968Z,102892.94
2023-05-03T12:55:48.243Z,102891.28
2023-05-03T13:01:37.140Z,102887.78
2023-05-03T13:03:43.101Z,102892.78
2023-05-03T13:06:14.494Z,102890.91
2023-05-03T13:11:12.900Z,102891.13
2023-05-03T13:13:40.379Z,102894.69
2023-05-03T13:16:08.152Z,102889.44
2023-05-03T13:18:35.602Z,102888.94
2023-05-03T13:21:02.408Z,102873.75
2023-05-03T13:23:34.588Z,102889.13
2023-05-03T13:26:01.587Z,102882.91
2023-05-03T13:28:28.758Z,102873.63
2023-05-03T13:30:55.869Z,102864.63
2023-05-03T13:33:22.916Z,102868.78
2023-05-03T13:35:49.945Z,102865.97
2023-05-03T13:38:19.567Z,102861.94
2023-05-03T13:40:47.258Z,102864.59
2023-05-03T13:43:14.225Z,102855.81
2023-05-03T13:45:43.722Z,102835.88
2023-05-03T13:48:18.135Z,102856.50
2023-05-03T13:50:45.811Z,102853.81
2023-05-03T13:53:13.370Z,102851.09
2023-05-03T13:55:40.411Z,102843.38
2023-05-03T13:58:07.370Z,102852.34
2023-05-03T14:00:34.537Z,102849.78
2023-05-03T14:03:01.950Z,102843.88
2023-05-03T14:05:29.184Z,102835.50
2023-05-03T14:07:57.096Z,102844.94
2023-05-03T14:10:24.401Z,102837.84
2023-05-03T14:12:52.363Z,102832.69
2023-05-03T14:15:19.412Z,102835.78
2023-05-03T14:17:49.824Z,102840.06
2023-05-03T14:20:18.000Z,102838.47
2023-05-03T14:22:47.805Z,102841.28
2023-05-03T14:25:14.727Z,102837.28
2023-05-03T14:27:41.713Z,102834.78
2023-05-03T14:30:12.973Z,102834.38
2023-05-03T14:32:39.982Z,102835.53
2023-05-03T14:35:08.212Z,102826.13
2023-05-03T14:37:35.199Z,102826.78
2023-05-03T14:40:02.420Z,102828.25
2023-05-03T14:42:33.306Z,102840.66
2023-05-03T14:45:00.647Z,102843.44
2023-05-03T14:47:27.705Z,102834.28
2023-05-03T14:49:54.769Z,102832.22
2023-05-03T14:52:21.780Z,102837.53
2023-05-03T14:54:48.602Z,102839.28
2023-05-03T14:57:15.911Z,102828.84
2023-05-03T14:59:43.021Z,102837.47
2023-05-03T15:02:10.450Z,102832.78
2023-05-03T15:04:40.640Z,102826.00
2023-05-03T15:07:09.443Z,102832.28
2023-05-03T15:09:38.344Z,102824.25
2023-05-03T15:12:05.528Z,102818.97
2023-05-03T15:14:35.048Z,102826.25
2023-05-03T15:17:02.150Z,102831.44
2023-05-03T15:19:29.535Z,102824.34
2023-05-03T15:21:56.591Z,102824.78
2023-05-03T15:24:23.792Z,102821.78
2023-05-03T15:26:51.936Z,102825.03
2023-05-03T15:29:18.774Z,102828.50
2023-05-03T15:31:47.321Z,102824.84
2023-05-03T15:34:14.370Z,102820.91
2023-05-03T15:36:41.336Z,102819.41
2023-05-03T15:39:09.518Z,102816.19
2023-05-03T15:41:39.398Z,102818.53
2023-05-03T15:44:08.286Z,102811.38
2023-05-03T15:46:35.567Z,102810.56
2023-05-03T15:49:02.830Z,102812.22
2023-05-03T15:51:29.795Z,102810.47
2023-05-03T15:53:56.824Z,102809.63
2023-05-03T15:56:27.956Z,102802.16
2023-05-03T15:58:55.001Z,102806.94
2023-05-03T16:01:21.832Z,102813.56
2023-05-03T16:03:49.174Z,102811.03
2023-05-03T16:06:19.129Z,102800.88
2023-05-03T16:08:46.289Z,102802.63
2023-05-03T16:11:13.702Z,102793.41
2023-05-03T16:13:40.719Z,102791.25
2023-05-03T16:16:07.928Z,102790.38
2023-05-03T16:18:35.442Z,102802.25
2023-05-03T16:21:03.122Z,102790.03
2023-05-03T16:23:30.104Z,102793.50
2023-05-03T16:25:57.324Z,102794.63
2023-05-03T16:28:24.503Z,102779.06
2023-05-03T16:30:53.317Z,102789.91
2023-05-03T16:33:20.588Z,102781.56
2023-05-03T16:35:48.900Z,102790.16
2023-05-03T16:38:15.773Z,102778.34
2023-05-03T16:40:43.560Z,102785.09
2023-05-03T16:43:10.777Z,102785.97
2023-05-03T16:45:37.991Z,102774.38
2023-05-03T16:48:06.791Z,102774.09
2023-05-03T16:50:38.133Z,102778.19
2023-05-03T16:53:04.988Z,102767.25
2023-05-03T16:55:31.982Z,102772.78
2023-05-03T16:57:58.775Z,102778.84
2023-05-03T17:00:26.198Z,102777.47
2023-05-03T17:02:53.535Z,102768.28
2023-05-03T17:05:20.595Z,102770.81
2023-05-03T17:07:47.525Z,102768.41
2023-05-03T17:10:14.754Z,102781.81
2023-05-03T17:12:48.030Z,102763.34
2023-05-03T17:15:20.705Z,102755.94
2023-05-03T17:17:52.260Z,102762.44
2023-05-03T17:20:19.997Z,102757.38
2023-05-03T17:22:46.966Z,102762.78
2023-05-03T17:25:13.879Z,102756.56
2023-05-03T17:27:44.255Z,102756.75
2023-05-03T17:30:11.835Z,102759.28
2023-05-03T17:32:38.876Z,102756.28
2023-05-03T17:35:07.163Z,102753.78
2023-05-03T17:37:34.222Z,102755.91
2023-05-03T17:40:01.202Z,102754.34
2023-05-03T17:42:28.413Z,102758.13
2023-05-03T17:44:55.869Z,102732.19
2023-05-03T17:47:25.187Z,102754.84
2023-05-03T17:49:52.516Z,102758.22
2023-05-03T17:52:19.641Z,102758.00
2023-05-03T17:54:46.792Z,102756.94
2023-05-03T17:57:13.743Z,102760.88
2023-05-03T17:59:41.147Z,102757.28
2023-05-03T18:02:08.197Z,102758.41
2023-05-03T18:04:38.645Z,102760.09
2023-05-03T18:07:06.023Z,102766.78
2023-05-03T18:09:33.613Z,102762.59
2023-05-03T18:12:02.452Z,102762.91
2023-05-03T18:14:29.488Z,102762.03
2023-05-03T18:16:56.352Z,102767.91
2023-05-03T18:19:25.615Z,102768.16
2023-05-03T18:21:52.658Z,102772.31
2023-05-03T18:24:19.472Z,102765.56
2023-05-03T18:26:47.503Z,102764.75
2023-05-03T18:29:14.425Z,102769.44
2023-05-03T18:31:41.915Z,102768.00
2023-05-03T18:34:08.863Z,102768.53
2023-05-03T18:36:35.779Z,102769.31
2023-05-03T18:39:05.093Z,102771.78
2023-05-03T18:41:32.219Z,102776.91
2023-05-03T18:43:59.079Z,102775.16
2023-05-03T18:46:26.219Z,102769.25
2023-05-03T18:48:53.833Z,102773.88
2023-05-03T18:51:20.681Z,102765.75
2023-05-03T18:53:47.497Z,102779.03
2023-05-03T18:56:14.643Z,102783.16
2023-05-03T18:58:41.551Z,102785.50
2023-05-03T19:01:08.722Z,102780.66
2023-05-03T19:03:36.390Z,102786.69
2023-05-03T19:06:04.922Z,102788.84
2023-05-03T19:08:34.113Z,102796.63
2023-05-03T19:11:13.062Z,102791.81
2023-05-03T19:13:42.705Z,102796.41
2023-05-03T19:16:09.682Z,102790.53
2023-05-03T19:18:42.472Z,102799.50
2023-05-03T19:21:09.790Z,102797.19
2023-05-03T19:23:36.866Z,102802.09
2023-05-03T19:26:04.297Z,102799.22
2023-05-03T19:28:32.208Z,102804.00
2023-05-03T19:31:03.333Z,102800.03
2023-05-03T19:33:30.276Z,102812.25
2023-05-03T19:35:57.489Z,102789.00
2023-05-03T19:38:24.494Z,102813.72
2023-05-03T19:40:58.198Z,102809.34
2023-05-03T19:43:25.482Z,102801.72
2023-05-03T19:45:53.202Z,102783.78
2023-05-03T19:48:20.236Z,102803.84
2023-05-03T19:50:47.912Z,102805.13
2023-05-03T19:53:15.023Z,102803.44
2023-05-03T19:55:42.158Z,102789.44
2023-05-03T19:58:12.433Z,102798.84
2023-05-03T20:00:39.349Z,102805.78
2023-05-03T20:03:09.256Z,102802.44
2023-05-03T20:05:36.359Z,102804.81
2023-05-03T20:08:03.437Z,102810.25
2023-05-03T20:10:35.822Z,102808.00
2023-05-03T20:13:04.638Z,102809.00
2023-05-03T20:15:32.229Z,102800.56
2023-05-03T20:17:59.219Z,102811.66
2023-05-03T20:20:26.295Z,102814.56
2023-05-03T20:22:53.359Z,102814.41
2023-05-03T20:25:24.059Z,102814.81
2023-05-03T20:27:50.970Z,102818.78
2023-05-03T20:30:18.191Z,102824.13
2023-05-03T20:32:45.033Z,102819.75
2023-05-03T20:35:12.577Z,102827.97
2023-05-03T20:37:40.204Z,102823.06
2023-05-03T20:40:08.149Z,102771.53
2023-05-03T20:42:36.856Z,102819.31
2023-05-03T20:45:04.292Z,102815.88
2023-05-03T20:47:31.143Z,102814.28
2023-05-03T20:49:58.117Z,102814.31
2023-05-03T20:52:25.012Z,102814.53
2023-05-03T20:54:52.380Z,102812.28
2023-05-03T20:57:19.347Z,102820.44
2023-05-03T20:59:46.153Z,102815.28
2023-05-03T21:02:13.175Z,102816.97
2023-05-03T21:04:40.444Z,102810.59
2023-05-03T21:07:07.465Z,102823.31
2023-05-03T21:09:34.413Z,102813.84
2023-05-03T21:12:01.893Z,102818.78
2023-05-03T21:14:29.184Z,102813.81
2023-05-03T21:16:56.397Z,102806.97
2023-05-03T21:19:23.506Z,102808.44
2023-05-03T21:21:51.084Z,102819.09
2023-05-03T21:24:17.967Z,102820.69
2023-05-03T21:26:44.929Z,102818.25
2023-05-03T21:29:14.637Z,102818.03
2023-05-03T21:31:41.817Z,102815.75
2023-05-03T21:34:08.938Z,102813.44
2023-05-03T21:36:35.946Z,102814.41
2023-05-03T21:39:02.751Z,102809.84
2023-05-03T21:41:29.848Z,102805.63
2023-05-03T21:43:56.794Z,102800.13
2023-05-03T21:46:23.734Z,102809.69
2023-05-03T21:48:50.797Z,102814.38
2023-05-03T21:51:25.017Z,102815.09
2023-05-03T21:53:52.290Z,102775.31
2023-05-03T21:56:19.202Z,102805.69
2023-05-03T21:58:46.075Z,102804.84
2023-05-03T22:01:20.558Z,102794.25
2023-05-03T22:03:49.757Z,102794.41
2023-05-03T22:06:16.809Z,102799.91
2023-05-03T22:08:43.763Z,102801.00
2023-05-03T22:11:11.722Z,102808.91
2023-05-03T22:13:49.618Z,102806.66
2023-05-03T22:16:21.970Z,102807.72
2023-05-03T22:18:49.312Z,102807.25
2023-05-03T22:21:16.725Z,102797.66
2023-05-03T22:23:43.816Z,102795.53
2023-05-03T22:26:10.805Z,102793.63
2023-05-03T22:28:37.727Z,102795.06
2023-05-03T22:31:04.608Z,102781.03
2023-05-03T22:33:31.632Z,102785.09
2023-05-03T22:35:58.676Z,102780.94
2023-05-03T22:38:25.681Z,102784.50
2023-05-03T22:40:52.669Z,102786.41
2023-05-03T22:43:19.617Z,102787.38
2023-05-03T22:45:46.438Z,102781.97
2023-05-03T22:48:13.855Z,102786.03
2023-05-03T22:50:40.790Z,102780.59
2023-05-03T22:53:07.751Z,102783.34
2023-05-03T22:55:34.722Z,102784.28
2023-05-03T22:58:01.749Z,102779.50
2023-05-03T23:00:28.777Z,102777.94
2023-05-03T23:02:55.856Z,102776.31
2023-05-03T23:05:22.899Z,102777.22
2023-05-03T23:07:49.854Z,102775.38
2023-05-03T23:10:16.999Z,102757.03
2023-05-03T23:12:43.975Z,102768.19
2023-05-03T23:15:11.500Z,102760.25
2023-05-03T23:17:38.458Z,102773.47
2023-05-03T23:20:06.075Z,102768.72
2023-05-03T23:22:32.980Z,102769.50
2023-05-03T23:25:00.277Z,102764.75
2023-05-03T23:27:27.440Z,102767.06
2023-05-03T23:29:55.022Z,102768.50
2023-05-03T23:32:22.700Z,102763.47
2023-05-03T23:34:49.978Z,102766.47
2023-05-03T23:37:16.952Z,102770.50
2023-05-03T23:39:44.943Z,102770.56
2023-05-03T23:42:13.192Z,102761.03
2023-05-03T23:44:53.777Z,102756.19
2023-05-03T23:47:21.740Z,102756.19
2023-05-03T23:49:48.576Z,102757.09
2023-05-03T23:52:17.181Z,102758.66
2023-05-03T23:54:44.077Z,102759.84
2023-05-03T23:57:11.633Z,102763.56
2023-05-03T23:59:38.529Z,102756.97
